Ocean Highway — H3IE — position and weather

sailwx.info

Track history (hours):
 
Tides and Currents Weather Stations Pressure Air Temp Water Temp Dewpoint Dewpoint Depression Visibility Wind Speed Wind Dir Waves Ship Positions

Ocean Highway

Last reported at 2018-Jan-19 13:28 UTC. Time now 2018-Jan-19 13:45 UTC.
Position N 35°25' E 139°43'.

Length 179.1 m; beam 32.2 m.

Type: Cargo ship. MMSI: 353951000.

Date/timePositionNaut miles runAvg speedWind from/ knotsBaromVisibWave heightAir tempDewpointWater temp
2018-Jan-19 13:28N 35°25' E 139°43'0 0.1
2018-Jan-19 12:58N 35°25' E 139°43'0 0.1
2018-Jan-19 12:28N 35°25' E 139°43'0 0.0
2018-Jan-19 11:58N 35°25' E 139°43'0 0.0
2018-Jan-19 11:28N 35°25' E 139°43'0 0.0
2018-Jan-19 10:58N 35°25' E 139°43'0 0.0
2018-Jan-19 10:28N 35°25' E 139°43'0 0.1
2018-Jan-19 09:58N 35°25' E 139°43'0 0.0
2018-Jan-19 09:28N 35°25' E 139°43'0 0.0
2018-Jan-19 08:58N 35°25' E 139°43'0 0.3
2018-Jan-19 08:30N 35°25' E 139°43'2 4.0
2018-Jan-19 08:00N 35°23' E 139°43'510.4
2018-Jan-19 07:30N 35°18' E 139°44'612.0
2018-Jan-19 07:01N 35°13' E 139°47'510.0
2018-Jan-19 06:31N 35°08' E 139°46'4 8.3
2018-Jan-19 06:00N 35°04' E 139°45'612.4
2018-Jan-19 05:30N 34°58' E 139°42'713.9
2018-Jan-19 04:59N 34°51' E 139°40'817.5
2018-Jan-19 04:30N 34°43' E 139°35'816.5
2018-Jan-19 04:00N 34°37' E 139°28'917.0
2018-Jan-19 03:30N 34°35' E 139°19'917.8
2018-Jan-19 02:59N 34°32' E 139°08'817.8
2018-Jan-19 02:30N 34°30' E 138°58'917.9
2018-Jan-19 02:00N 34°24' E 138°49'917.4
2018-Jan-19 01:29N 34°19' E 138°40'918.8
2018-Jan-19 01:00N 34°14' E 138°31'  
Track history (hours):
 
Tides and Currents Weather Stations Pressure Air Temp Water Temp Dewpoint Dewpoint Depression Visibility Wind Speed Wind Dir Waves Ship Positions

Ocean Highway

Last reported at 2018-Jan-19 13:28 UTC. Time now 2018-Jan-19 13:45 UTC.
Position N 35°25' E 139°43'.

Length 179.1 m; beam 32.2 m.

Type: Cargo ship. MMSI: 353951000.

Date/timePositionNaut miles runAvg speedWind from/ knotsBaromVisibWave heightAir tempDewpointWater temp
2018-Jan-19 13:28N 35°25' E 139°43'0 0.1
2018-Jan-19 12:58N 35°25' E 139°43'0 0.1
2018-Jan-19 12:28N 35°25' E 139°43'0 0.0
2018-Jan-19 11:58N 35°25' E 139°43'0 0.0
2018-Jan-19 11:28N 35°25' E 139°43'0 0.0
2018-Jan-19 10:58N 35°25' E 139°43'0 0.0
2018-Jan-19 10:28N 35°25' E 139°43'0 0.1
2018-Jan-19 09:58N 35°25' E 139°43'0 0.0
2018-Jan-19 09:28N 35°25' E 139°43'0 0.0
2018-Jan-19 08:58N 35°25' E 139°43'0 0.3
2018-Jan-19 08:30N 35°25' E 139°43'2 4.0
2018-Jan-19 08:00N 35°23' E 139°43'510.4
2018-Jan-19 07:30N 35°18' E 139°44'612.0
2018-Jan-19 07:01N 35°13' E 139°47'510.0
2018-Jan-19 06:31N 35°08' E 139°46'4 8.3
2018-Jan-19 06:00N 35°04' E 139°45'612.4
2018-Jan-19 05:30N 34°58' E 139°42'713.9
2018-Jan-19 04:59N 34°51' E 139°40'817.5
2018-Jan-19 04:30N 34°43' E 139°35'816.5
2018-Jan-19 04:00N 34°37' E 139°28'917.0
2018-Jan-19 03:30N 34°35' E 139°19'917.8
2018-Jan-19 02:59N 34°32' E 139°08'817.8
2018-Jan-19 02:30N 34°30' E 138°58'917.9
2018-Jan-19 02:00N 34°24' E 138°49'917.4
2018-Jan-19 01:29N 34°19' E 138°40'918.8
2018-Jan-19 01:00N 34°14' E 138°31'  

Dump ship's entire track history